Fraga, Spain
Current Conditions -  °F | °C
As of 6:00 PM on Thursday 30 Oct 2014 (Local Time) from LERS Reporting Station
Scattered Clouds Scattered Clouds  
Wind Chill: 66°   Ceiling: Unl
Heat Index: 66°   Visibility: 6mi
Dew Point: 63°   Wind: 2mph
Humidity: 88%   Direction: NA
Pressure: 30.21"   Gusts: NA
Location:  41.52°N, 0.35°E
Report Text: LERS 301700Z VRB02KT 9999 SCT017 19/17 Q1023
Loading
Personal Weather Stations






























Interactive Weather Map
Tropical Storm Tracking
New forecast layout! Learn more

10-Day Weather Forecast

Advertisements
Track Severe Weather on mobile